sensor_id;sensor_type;location;lat;lon;timestamp;temperature;humidity
25192;DHT22;13143;50.924;5.320;2023-11-19T00:00:53;13.00;99.90
25192;DHT22;13143;50.924;5.320;2023-11-19T00:03:19;13.00;99.90
25192;DHT22;13143;50.924;5.320;2023-11-19T00:05:44;13.00;99.90
25192;DHT22;13143;50.924;5.320;2023-11-19T00:08:10;13.10;99.90
25192;DHT22;13143;50.924;5.320;2023-11-19T00:10:36;13.00;99.90
25192;DHT22;13143;50.924;5.320;2023-11-19T00:13:02;13.10;99.90
25192;DHT22;13143;50.924;5.320;2023-11-19T00:15:28;13.10;99.90
25192;DHT22;13143;50.924;5.320;2023-11-19T00:17:57;13.10;99.90
25192;DHT22;13143;50.924;5.320;2023-11-19T00:20:23;13.10;99.90
25192;DHT22;13143;50.924;5.320;2023-11-19T00:22:49;13.10;99.90
25192;DHT22;13143;50.924;5.320;2023-11-19T00:25:18;13.10;99.90
25192;DHT22;13143;50.924;5.320;2023-11-19T00:27:44;13.10;99.90
25192;DHT22;13143;50.924;5.320;2023-11-19T00:30:10;13.10;99.90
25192;DHT22;13143;50.924;5.320;2023-11-19T00:32:36;13.10;99.90
25192;DHT22;13143;50.924;5.320;2023-11-19T00:35:06;13.10;99.90
25192;DHT22;13143;50.924;5.320;2023-11-19T00:37:36;13.20;99.90
25192;DHT22;13143;50.924;5.320;2023-11-19T00:40:02;13.20;99.90
25192;DHT22;13143;50.924;5.320;2023-11-19T00:42:33;13.20;99.90
25192;DHT22;13143;50.924;5.320;2023-11-19T00:44:59;13.20;99.90
25192;DHT22;13143;50.924;5.320;2023-11-19T00:47:27;13.20;99.90
25192;DHT22;13143;50.924;5.320;2023-11-19T00:49:52;13.20;99.90
25192;DHT22;13143;50.924;5.320;2023-11-19T00:52:18;13.20;99.90
25192;DHT22;13143;50.924;5.320;2023-11-19T00:54:44;13.20;99.90
25192;DHT22;13143;50.924;5.320;2023-11-19T00:57:13;13.20;99.90
25192;DHT22;13143;50.924;5.320;2023-11-19T00:59:42;13.20;99.90
25192;DHT22;13143;50.924;5.320;2023-11-19T01:02:07;13.30;99.90
25192;DHT22;13143;50.924;5.320;2023-11-19T01:04:34;13.30;99.90
25192;DHT22;13143;50.924;5.320;2023-11-19T01:07:04;13.30;99.90
25192;DHT22;13143;50.924;5.320;2023-11-19T01:09:34;13.30;99.90
25192;DHT22;13143;50.924;5.320;2023-11-19T01:12:01;13.30;99.90
25192;DHT22;13143;50.924;5.320;2023-11-19T01:14:28;13.30;99.90
25192;DHT22;13143;50.924;5.320;2023-11-19T01:16:54;13.30;99.90
25192;DHT22;13143;50.924;5.320;2023-11-19T01:19:21;13.30;99.90
25192;DHT22;13143;50.924;5.320;2023-11-19T01:21:48;13.30;99.90
25192;DHT22;13143;50.924;5.320;2023-11-19T01:24:14;13.30;99.90
25192;DHT22;13143;50.924;5.320;2023-11-19T01:26:40;13.30;99.90
25192;DHT22;13143;50.924;5.320;2023-11-19T01:29:15;13.40;99.90
25192;DHT22;13143;50.924;5.320;2023-11-19T01:31:42;13.40;99.90
25192;DHT22;13143;50.924;5.320;2023-11-19T01:34:08;13.40;99.90
25192;DHT22;13143;50.924;5.320;2023-11-19T01:36:35;13.40;99.90
25192;DHT22;13143;50.924;5.320;2023-11-19T01:39:00;13.40;99.90
25192;DHT22;13143;50.924;5.320;2023-11-19T01:41:26;13.40;99.90
25192;DHT22;13143;50.924;5.320;2023-11-19T01:43:52;13.40;99.90
25192;DHT22;13143;50.924;5.320;2023-11-19T01:46:20;13.40;99.90
25192;DHT22;13143;50.924;5.320;2023-11-19T01:48:46;13.40;99.90
25192;DHT22;13143;50.924;5.320;2023-11-19T01:51:16;13.50;99.90
25192;DHT22;13143;50.924;5.320;2023-11-19T01:53:43;13.50;99.90
25192;DHT22;13143;50.924;5.320;2023-11-19T01:56:12;13.50;99.90
25192;DHT22;13143;50.924;5.320;2023-11-19T01:58:39;13.50;99.90
25192;DHT22;13143;50.924;5.320;2023-11-19T02:01:09;13.50;99.90
25192;DHT22;13143;50.924;5.320;2023-11-19T02:03:36;13.50;99.90
25192;DHT22;13143;50.924;5.320;2023-11-19T02:06:03;13.50;99.90
25192;DHT22;13143;50.924;5.320;2023-11-19T02:08:29;13.50;99.90
25192;DHT22;13143;50.924;5.320;2023-11-19T02:10:55;13.50;99.90
25192;DHT22;13143;50.924;5.320;2023-11-19T02:13:26;13.60;99.90
25192;DHT22;13143;50.924;5.320;2023-11-19T02:15:52;13.60;99.90
25192;DHT22;13143;50.924;5.320;2023-11-19T02:20:44;13.60;99.90
25192;DHT22;13143;50.924;5.320;2023-11-19T02:23:10;13.60;99.90
25192;DHT22;13143;50.924;5.320;2023-11-19T02:25:36;13.60;99.90
25192;DHT22;13143;50.924;5.320;2023-11-19T02:28:03;13.60;99.90
25192;DHT22;13143;50.924;5.320;2023-11-19T02:30:30;13.60;99.90
25192;DHT22;13143;50.924;5.320;2023-11-19T02:33:00;13.60;99.90
25192;DHT22;13143;50.924;5.320;2023-11-19T02:35:31;13.60;99.90
25192;DHT22;13143;50.924;5.320;2023-11-19T02:37:58;13.60;99.90
25192;DHT22;13143;50.924;5.320;2023-11-19T02:40:24;13.60;99.90
25192;DHT22;13143;50.924;5.320;2023-11-19T02:42:51;13.60;99.90
25192;DHT22;13143;50.924;5.320;2023-11-19T02:45:17;13.60;99.90
25192;DHT22;13143;50.924;5.320;2023-11-19T02:47:43;13.60;99.90
25192;DHT22;13143;50.924;5.320;2023-11-19T02:50:10;13.60;99.90
25192;DHT22;13143;50.924;5.320;2023-11-19T02:52:43;13.60;99.90
25192;DHT22;13143;50.924;5.320;2023-11-19T02:55:11;13.60;99.90
25192;DHT22;13143;50.924;5.320;2023-11-19T02:57:41;13.60;99.90
25192;DHT22;13143;50.924;5.320;2023-11-19T03:00:17;13.60;99.90
25192;DHT22;13143;50.924;5.320;2023-11-19T03:02:44;13.70;99.90
25192;DHT22;13143;50.924;5.320;2023-11-19T03:05:14;13.60;99.90
25192;DHT22;13143;50.924;5.320;2023-11-19T03:07:42;13.60;99.90
25192;DHT22;13143;50.924;5.320;2023-11-19T03:10:09;13.60;99.90
25192;DHT22;13143;50.924;5.320;2023-11-19T03:12:42;13.70;99.90
25192;DHT22;13143;50.924;5.320;2023-11-19T03:15:08;13.70;99.90
25192;DHT22;13143;50.924;5.320;2023-11-19T03:17:41;13.60;99.90
25192;DHT22;13143;50.924;5.320;2023-11-19T03:20:10;13.70;99.90
25192;DHT22;13143;50.924;5.320;2023-11-19T03:22:39;13.60;99.90
25192;DHT22;13143;50.924;5.320;2023-11-19T03:25:07;13.60;99.90
25192;DHT22;13143;50.924;5.320;2023-11-19T03:27:35;13.60;99.90
25192;DHT22;13143;50.924;5.320;2023-11-19T03:30:05;13.70;99.90
25192;DHT22;13143;50.924;5.320;2023-11-19T03:32:34;13.70;99.90
25192;DHT22;13143;50.924;5.320;2023-11-19T03:35:01;13.70;99.90
25192;DHT22;13143;50.924;5.320;2023-11-19T03:37:27;13.60;99.90
25192;DHT22;13143;50.924;5.320;2023-11-19T03:39:57;13.60;99.90
25192;DHT22;13143;50.924;5.320;2023-11-19T03:42:25;13.60;99.90
25192;DHT22;13143;50.924;5.320;2023-11-19T03:44:52;13.60;99.90
25192;DHT22;13143;50.924;5.320;2023-11-19T03:47:18;13.60;99.90
25192;DHT22;13143;50.924;5.320;2023-11-19T03:49:48;13.60;99.90
25192;DHT22;13143;50.924;5.320;2023-11-19T03:52:14;13.60;99.90
25192;DHT22;13143;50.924;5.320;2023-11-19T03:54:40;13.60;99.90
25192;DHT22;13143;50.924;5.320;2023-11-19T03:57:05;13.60;99.90
25192;DHT22;13143;50.924;5.320;2023-11-19T03:59:31;13.60;99.90
25192;DHT22;13143;50.924;5.320;2023-11-19T04:01:57;13.60;99.90
25192;DHT22;13143;50.924;5.320;2023-11-19T04:04:26;13.60;99.90
25192;DHT22;13143;50.924;5.320;2023-11-19T04:06:53;13.60;99.90
25192;DHT22;13143;50.924;5.320;2023-11-19T04:09:18;13.60;99.90
25192;DHT22;13143;50.924;5.320;2023-11-19T04:11:44;13.60;99.90
25192;DHT22;13143;50.924;5.320;2023-11-19T04:14:12;13.60;99.90
25192;DHT22;13143;50.924;5.320;2023-11-19T04:16:38;13.60;99.90
25192;DHT22;13143;50.924;5.320;2023-11-19T04:19:04;13.60;99.90
25192;DHT22;13143;50.924;5.320;2023-11-19T04:21:30;13.60;99.90
25192;DHT22;13143;50.924;5.320;2023-11-19T04:23:56;13.60;99.90
25192;DHT22;13143;50.924;5.320;2023-11-19T04:26:22;13.60;99.90
25192;DHT22;13143;50.924;5.320;2023-11-19T04:28:47;13.60;99.90
25192;DHT22;13143;50.924;5.320;2023-11-19T04:31:15;13.60;99.90
25192;DHT22;13143;50.924;5.320;2023-11-19T04:33:42;13.60;99.90
25192;DHT22;13143;50.924;5.320;2023-11-19T04:36:08;13.60;99.90
25192;DHT22;13143;50.924;5.320;2023-11-19T04:38:34;13.60;99.90
25192;DHT22;13143;50.924;5.320;2023-11-19T04:41:00;13.60;99.90
25192;DHT22;13143;50.924;5.320;2023-11-19T04:43:26;13.60;99.90
25192;DHT22;13143;50.924;5.320;2023-11-19T04:45:51;13.60;99.90
25192;DHT22;13143;50.924;5.320;2023-11-19T04:48:17;13.50;99.90
25192;DHT22;13143;50.924;5.320;2023-11-19T04:50:43;13.50;99.90
25192;DHT22;13143;50.924;5.320;2023-11-19T04:53:08;13.50;99.90
25192;DHT22;13143;50.924;5.320;2023-11-19T04:55:34;13.50;99.90
25192;DHT22;13143;50.924;5.320;2023-11-19T04:57:59;13.50;99.90
25192;DHT22;13143;50.924;5.320;2023-11-19T05:00:26;13.50;99.90
25192;DHT22;13143;50.924;5.320;2023-11-19T05:02:51;13.50;99.90
25192;DHT22;13143;50.924;5.320;2023-11-19T05:05:17;13.50;99.90
25192;DHT22;13143;50.924;5.320;2023-11-19T05:07:43;13.50;99.90
25192;DHT22;13143;50.924;5.320;2023-11-19T05:10:09;13.50;99.90
25192;DHT22;13143;50.924;5.320;2023-11-19T05:12:34;13.50;99.90
25192;DHT22;13143;50.924;5.320;2023-11-19T05:15:00;13.50;99.90
25192;DHT22;13143;50.924;5.320;2023-11-19T05:17:26;13.50;99.90
25192;DHT22;13143;50.924;5.320;2023-11-19T05:19:52;13.50;99.90
25192;DHT22;13143;50.924;5.320;2023-11-19T05:22:17;13.50;99.90
25192;DHT22;13143;50.924;5.320;2023-11-19T05:24:43;13.50;99.90
25192;DHT22;13143;50.924;5.320;2023-11-19T05:27:09;13.50;99.90
25192;DHT22;13143;50.924;5.320;2023-11-19T05:29:37;13.50;99.90
25192;DHT22;13143;50.924;5.320;2023-11-19T05:32:05;13.50;99.90
25192;DHT22;13143;50.924;5.320;2023-11-19T05:34:30;13.50;99.90
25192;DHT22;13143;50.924;5.320;2023-11-19T05:36:56;13.40;99.90
25192;DHT22;13143;50.924;5.320;2023-11-19T05:39:22;13.50;99.90
25192;DHT22;13143;50.924;5.320;2023-11-19T05:41:48;13.40;99.90
25192;DHT22;13143;50.924;5.320;2023-11-19T05:44:14;13.40;99.90
25192;DHT22;13143;50.924;5.320;2023-11-19T05:46:39;13.50;99.90
25192;DHT22;13143;50.924;5.320;2023-11-19T05:49:08;13.40;99.90
25192;DHT22;13143;50.924;5.320;2023-11-19T05:51:40;13.40;99.90
25192;DHT22;13143;50.924;5.320;2023-11-19T05:54:09;13.40;99.90
25192;DHT22;13143;50.924;5.320;2023-11-19T05:56:36;13.40;99.90
25192;DHT22;13143;50.924;5.320;2023-11-19T05:59:01;13.40;99.90
25192;DHT22;13143;50.924;5.320;2023-11-19T06:01:29;13.40;99.90
25192;DHT22;13143;50.924;5.320;2023-11-19T06:03:55;13.40;99.90
25192;DHT22;13143;50.924;5.320;2023-11-19T06:06:20;13.40;99.90
25192;DHT22;13143;50.924;5.320;2023-11-19T06:08:46;13.40;99.90
25192;DHT22;13143;50.924;5.320;2023-11-19T06:11:12;13.40;99.90
25192;DHT22;13143;50.924;5.320;2023-11-19T06:13:44;13.40;99.90
25192;DHT22;13143;50.924;5.320;2023-11-19T06:16:10;13.40;99.90
25192;DHT22;13143;50.924;5.320;2023-11-19T06:18:39;13.40;99.90
25192;DHT22;13143;50.924;5.320;2023-11-19T06:21:04;13.40;99.90
25192;DHT22;13143;50.924;5.320;2023-11-19T06:23:30;13.40;99.90
25192;DHT22;13143;50.924;5.320;2023-11-19T06:25:56;13.40;99.90
25192;DHT22;13143;50.924;5.320;2023-11-19T06:28:21;13.30;99.90
25192;DHT22;13143;50.924;5.320;2023-11-19T06:30:47;13.40;99.90
25192;DHT22;13143;50.924;5.320;2023-11-19T06:33:13;13.30;99.90
25192;DHT22;13143;50.924;5.320;2023-11-19T06:35:39;13.30;99.90
25192;DHT22;13143;50.924;5.320;2023-11-19T06:38:05;13.30;99.90
25192;DHT22;13143;50.924;5.320;2023-11-19T06:40:31;13.30;99.90
25192;DHT22;13143;50.924;5.320;2023-11-19T06:42:57;13.30;99.90
25192;DHT22;13143;50.924;5.320;2023-11-19T06:45:23;13.30;99.90
25192;DHT22;13143;50.924;5.320;2023-11-19T06:47:49;13.30;99.90
25192;DHT22;13143;50.924;5.320;2023-11-19T06:50:15;13.30;99.90
25192;DHT22;13143;50.924;5.320;2023-11-19T06:52:41;13.20;99.90
25192;DHT22;13143;50.924;5.320;2023-11-19T06:55:07;13.20;99.90
25192;DHT22;13143;50.924;5.320;2023-11-19T06:57:33;13.20;99.90
25192;DHT22;13143;50.924;5.320;2023-11-19T06:59:59;13.20;99.90
25192;DHT22;13143;50.924;5.320;2023-11-19T07:02:25;13.20;99.90
25192;DHT22;13143;50.924;5.320;2023-11-19T07:04:51;13.20;99.90
25192;DHT22;13143;50.924;5.320;2023-11-19T07:07:16;13.20;99.90
25192;DHT22;13143;50.924;5.320;2023-11-19T07:09:42;13.20;99.90
25192;DHT22;13143;50.924;5.320;2023-11-19T07:12:08;13.20;99.90
25192;DHT22;13143;50.924;5.320;2023-11-19T07:14:34;13.20;99.90
25192;DHT22;13143;50.924;5.320;2023-11-19T07:17:00;13.20;99.90
25192;DHT22;13143;50.924;5.320;2023-11-19T07:19:26;13.20;99.90
25192;DHT22;13143;50.924;5.320;2023-11-19T07:21:52;13.10;99.90
25192;DHT22;13143;50.924;5.320;2023-11-19T07:24:20;13.20;99.90
25192;DHT22;13143;50.924;5.320;2023-11-19T07:26:47;13.20;99.90
25192;DHT22;13143;50.924;5.320;2023-11-19T07:29:13;13.10;99.90
25192;DHT22;13143;50.924;5.320;2023-11-19T07:31:40;13.10;99.90
25192;DHT22;13143;50.924;5.320;2023-11-19T07:34:05;13.10;99.90
25192;DHT22;13143;50.924;5.320;2023-11-19T07:36:32;13.10;99.90
25192;DHT22;13143;50.924;5.320;2023-11-19T07:38:58;13.10;99.90
25192;DHT22;13143;50.924;5.320;2023-11-19T07:41:24;13.10;99.90
25192;DHT22;13143;50.924;5.320;2023-11-19T07:43:51;13.10;99.90
25192;DHT22;13143;50.924;5.320;2023-11-19T07:46:17;13.10;99.90
25192;DHT22;13143;50.924;5.320;2023-11-19T07:48:45;13.10;99.90
25192;DHT22;13143;50.924;5.320;2023-11-19T07:51:12;13.10;99.90
25192;DHT22;13143;50.924;5.320;2023-11-19T07:53:38;13.10;99.90
25192;DHT22;13143;50.924;5.320;2023-11-19T07:56:05;13.10;99.90
25192;DHT22;13143;50.924;5.320;2023-11-19T07:58:31;13.10;99.90
25192;DHT22;13143;50.924;5.320;2023-11-19T08:00:56;13.10;99.90
25192;DHT22;13143;50.924;5.320;2023-11-19T08:03:22;13.10;99.90
25192;DHT22;13143;50.924;5.320;2023-11-19T08:05:48;13.00;99.90
25192;DHT22;13143;50.924;5.320;2023-11-19T08:08:14;13.10;99.90
25192;DHT22;13143;50.924;5.320;2023-11-19T08:10:40;13.10;99.90
25192;DHT22;13143;50.924;5.320;2023-11-19T08:13:06;13.10;99.90
25192;DHT22;13143;50.924;5.320;2023-11-19T08:15:32;13.10;99.90
25192;DHT22;13143;50.924;5.320;2023-11-19T08:17:58;13.00;99.90
25192;DHT22;13143;50.924;5.320;2023-11-19T08:20:24;13.00;99.90
25192;DHT22;13143;50.924;5.320;2023-11-19T08:22:50;13.00;99.90
25192;DHT22;13143;50.924;5.320;2023-11-19T08:25:15;13.00;99.90
25192;DHT22;13143;50.924;5.320;2023-11-19T08:27:41;13.00;99.90
25192;DHT22;13143;50.924;5.320;2023-11-19T08:30:08;13.00;99.90
25192;DHT22;13143;50.924;5.320;2023-11-19T08:32:34;13.00;99.90
25192;DHT22;13143;50.924;5.320;2023-11-19T08:35:00;13.00;99.90
25192;DHT22;13143;50.924;5.320;2023-11-19T08:37:25;13.00;99.90
25192;DHT22;13143;50.924;5.320;2023-11-19T08:39:51;13.00;99.90
25192;DHT22;13143;50.924;5.320;2023-11-19T08:42:17;13.00;99.90
25192;DHT22;13143;50.924;5.320;2023-11-19T08:44:43;13.00;99.90
25192;DHT22;13143;50.924;5.320;2023-11-19T08:47:11;13.10;99.90
25192;DHT22;13143;50.924;5.320;2023-11-19T08:49:36;13.00;99.90
25192;DHT22;13143;50.924;5.320;2023-11-19T08:52:02;13.10;99.90
25192;DHT22;13143;50.924;5.320;2023-11-19T08:54:28;13.10;99.90
25192;DHT22;13143;50.924;5.320;2023-11-19T08:56:53;13.10;99.90
25192;DHT22;13143;50.924;5.320;2023-11-19T08:59:19;13.10;99.90
25192;DHT22;13143;50.924;5.320;2023-11-19T09:01:45;13.10;99.90
25192;DHT22;13143;50.924;5.320;2023-11-19T09:04:11;13.10;99.90
25192;DHT22;13143;50.924;5.320;2023-11-19T09:06:36;13.10;99.90
25192;DHT22;13143;50.924;5.320;2023-11-19T09:09:02;13.10;99.90
25192;DHT22;13143;50.924;5.320;2023-11-19T09:11:31;13.10;99.90
25192;DHT22;13143;50.924;5.320;2023-11-19T09:13:56;13.10;99.90
25192;DHT22;13143;50.924;5.320;2023-11-19T09:16:22;13.10;99.90
25192;DHT22;13143;50.924;5.320;2023-11-19T09:18:48;13.10;99.90
25192;DHT22;13143;50.924;5.320;2023-11-19T09:21:13;13.10;99.90
25192;DHT22;13143;50.924;5.320;2023-11-19T09:23:39;13.20;99.90
25192;DHT22;13143;50.924;5.320;2023-11-19T09:26:06;13.20;99.90
25192;DHT22;13143;50.924;5.320;2023-11-19T09:28:33;13.20;99.90
25192;DHT22;13143;50.924;5.320;2023-11-19T09:30:59;13.10;99.90
25192;DHT22;13143;50.924;5.320;2023-11-19T09:33:25;13.20;99.90
25192;DHT22;13143;50.924;5.320;2023-11-19T09:35:52;13.20;99.90
25192;DHT22;13143;50.924;5.320;2023-11-19T09:38:18;13.20;99.90
25192;DHT22;13143;50.924;5.320;2023-11-19T09:40:44;13.20;99.90
25192;DHT22;13143;50.924;5.320;2023-11-19T09:43:10;13.20;99.90
25192;DHT22;13143;50.924;5.320;2023-11-19T09:45:56;13.30;99.90
25192;DHT22;13143;50.924;5.320;2023-11-19T09:48:25;13.20;99.90
25192;DHT22;13143;50.924;5.320;2023-11-19T09:50:52;13.30;99.90
25192;DHT22;13143;50.924;5.320;2023-11-19T09:53:18;13.30;99.90
25192;DHT22;13143;50.924;5.320;2023-11-19T09:55:45;13.20;99.90
25192;DHT22;13143;50.924;5.320;2023-11-19T09:58:12;13.30;99.90
25192;DHT22;13143;50.924;5.320;2023-11-19T10:00:40;13.30;99.90
25192;DHT22;13143;50.924;5.320;2023-11-19T10:03:07;13.30;99.90
25192;DHT22;13143;50.924;5.320;2023-11-19T10:05:36;13.30;99.90
25192;DHT22;13143;50.924;5.320;2023-11-19T10:08:03;13.30;99.90
25192;DHT22;13143;50.924;5.320;2023-11-19T10:10:29;13.30;99.90
25192;DHT22;13143;50.924;5.320;2023-11-19T10:12:55;13.30;99.90
25192;DHT22;13143;50.924;5.320;2023-11-19T10:15:22;13.30;99.90
25192;DHT22;13143;50.924;5.320;2023-11-19T10:17:48;13.30;99.90
25192;DHT22;13143;50.924;5.320;2023-11-19T10:20:14;13.30;99.90
25192;DHT22;13143;50.924;5.320;2023-11-19T10:22:40;13.40;99.90
25192;DHT22;13143;50.924;5.320;2023-11-19T10:25:22;13.40;99.90
25192;DHT22;13143;50.924;5.320;2023-11-19T10:27:49;13.40;99.90
25192;DHT22;13143;50.924;5.320;2023-11-19T10:30:24;13.40;99.90
25192;DHT22;13143;50.924;5.320;2023-11-19T10:33:13;13.40;99.90
25192;DHT22;13143;50.924;5.320;2023-11-19T10:35:57;13.40;99.90
25192;DHT22;13143;50.924;5.320;2023-11-19T10:38:23;13.40;99.90
25192;DHT22;13143;50.924;5.320;2023-11-19T10:40:50;13.40;99.90
25192;DHT22;13143;50.924;5.320;2023-11-19T10:43:17;13.40;99.90
25192;DHT22;13143;50.924;5.320;2023-11-19T10:45:43;13.40;99.90
25192;DHT22;13143;50.924;5.320;2023-11-19T10:48:09;13.40;99.90
25192;DHT22;13143;50.924;5.320;2023-11-19T10:50:36;13.40;99.90
25192;DHT22;13143;50.924;5.320;2023-11-19T10:53:03;13.50;99.90
25192;DHT22;13143;50.924;5.320;2023-11-19T10:55:33;13.50;99.90
25192;DHT22;13143;50.924;5.320;2023-11-19T11:00:29;13.50;99.90
25192;DHT22;13143;50.924;5.320;2023-11-19T11:03:02;13.50;99.90
25192;DHT22;13143;50.924;5.320;2023-11-19T11:05:34;13.60;99.90
25192;DHT22;13143;50.924;5.320;2023-11-19T11:08:00;13.60;99.90
25192;DHT22;13143;50.924;5.320;2023-11-19T11:10:26;13.60;99.90
25192;DHT22;13143;50.924;5.320;2023-11-19T11:12:56;13.60;99.90
25192;DHT22;13143;50.924;5.320;2023-11-19T11:15:27;13.60;99.90
25192;DHT22;13143;50.924;5.320;2023-11-19T11:18:01;13.60;99.90
25192;DHT22;13143;50.924;5.320;2023-11-19T11:20:33;13.70;99.90
25192;DHT22;13143;50.924;5.320;2023-11-19T11:23:17;13.60;99.90
25192;DHT22;13143;50.924;5.320;2023-11-19T11:25:57;13.70;99.90
25192;DHT22;13143;50.924;5.320;2023-11-19T11:37:18;13.70;99.90
25192;DHT22;13143;50.924;5.320;2023-11-19T11:39:46;13.70;99.90
25192;DHT22;13143;50.924;5.320;2023-11-19T11:45:05;13.70;99.90
25192;DHT22;13143;50.924;5.320;2023-11-19T11:50:16;13.80;99.90
25192;DHT22;13143;50.924;5.320;2023-11-19T11:55:26;13.70;99.90
25192;DHT22;13143;50.924;5.320;2023-11-19T11:57:52;13.80;99.90
25192;DHT22;13143;50.924;5.320;2023-11-19T12:03:00;13.80;99.90
25192;DHT22;13143;50.924;5.320;2023-11-19T12:05:27;13.80;99.90
25192;DHT22;13143;50.924;5.320;2023-11-19T12:08:00;13.80;99.90
25192;DHT22;13143;50.924;5.320;2023-11-19T12:10:29;13.80;99.90
25192;DHT22;13143;50.924;5.320;2023-11-19T12:13:00;13.80;99.90
25192;DHT22;13143;50.924;5.320;2023-11-19T12:15:26;13.80;99.90
25192;DHT22;13143;50.924;5.320;2023-11-19T12:17:53;13.80;99.90
25192;DHT22;13143;50.924;5.320;2023-11-19T12:20:24;13.80;99.90
25192;DHT22;13143;50.924;5.320;2023-11-19T12:22:51;13.80;99.90
25192;DHT22;13143;50.924;5.320;2023-11-19T12:25:17;13.90;99.90
25192;DHT22;13143;50.924;5.320;2023-11-19T12:27:47;13.90;99.90
25192;DHT22;13143;50.924;5.320;2023-11-19T12:30:23;13.80;99.90
25192;DHT22;13143;50.924;5.320;2023-11-19T12:32:53;13.90;99.90
25192;DHT22;13143;50.924;5.320;2023-11-19T12:35:22;13.90;99.90
25192;DHT22;13143;50.924;5.320;2023-11-19T12:37:51;13.90;99.90
25192;DHT22;13143;50.924;5.320;2023-11-19T12:40:20;13.90;99.90
25192;DHT22;13143;50.924;5.320;2023-11-19T12:42:50;13.90;99.90
25192;DHT22;13143;50.924;5.320;2023-11-19T12:45:16;14.00;99.90
25192;DHT22;13143;50.924;5.320;2023-11-19T12:47:43;14.00;99.90
25192;DHT22;13143;50.924;5.320;2023-11-19T12:50:10;14.00;99.90
25192;DHT22;13143;50.924;5.320;2023-11-19T12:52:39;14.00;99.90
25192;DHT22;13143;50.924;5.320;2023-11-19T12:55:23;14.00;99.90
25192;DHT22;13143;50.924;5.320;2023-11-19T12:57:50;14.00;99.90
25192;DHT22;13143;50.924;5.320;2023-11-19T13:00:20;14.00;99.90
25192;DHT22;13143;50.924;5.320;2023-11-19T13:02:48;14.00;99.90
25192;DHT22;13143;50.924;5.320;2023-11-19T13:05:34;14.00;99.90
25192;DHT22;13143;50.924;5.320;2023-11-19T13:08:02;14.00;99.90
25192;DHT22;13143;50.924;5.320;2023-11-19T13:10:30;14.10;99.90
25192;DHT22;13143;50.924;5.320;2023-11-19T13:13:07;14.10;99.90
25192;DHT22;13143;50.924;5.320;2023-11-19T13:15:36;14.10;99.90
25192;DHT22;13143;50.924;5.320;2023-11-19T13:18:02;14.10;99.90
25192;DHT22;13143;50.924;5.320;2023-11-19T13:20:28;14.10;99.90
25192;DHT22;13143;50.924;5.320;2023-11-19T13:25:23;14.10;99.90
25192;DHT22;13143;50.924;5.320;2023-11-19T13:27:49;14.10;99.90
25192;DHT22;13143;50.924;5.320;2023-11-19T13:30:15;14.10;99.90
25192;DHT22;13143;50.924;5.320;2023-11-19T13:32:41;14.10;99.90
25192;DHT22;13143;50.924;5.320;2023-11-19T13:35:09;14.10;99.90
25192;DHT22;13143;50.924;5.320;2023-11-19T13:37:35;14.10;99.90
25192;DHT22;13143;50.924;5.320;2023-11-19T13:40:00;14.10;99.90
25192;DHT22;13143;50.924;5.320;2023-11-19T13:42:26;14.10;99.90
25192;DHT22;13143;50.924;5.320;2023-11-19T13:44:52;14.10;99.90
25192;DHT22;13143;50.924;5.320;2023-11-19T13:47:18;14.10;99.90
25192;DHT22;13143;50.924;5.320;2023-11-19T13:49:44;14.10;99.90
25192;DHT22;13143;50.924;5.320;2023-11-19T13:52:10;14.10;99.90
25192;DHT22;13143;50.924;5.320;2023-11-19T13:54:37;14.10;99.90
25192;DHT22;13143;50.924;5.320;2023-11-19T13:57:03;14.10;99.90
25192;DHT22;13143;50.924;5.320;2023-11-19T13:59:32;14.10;99.90
25192;DHT22;13143;50.924;5.320;2023-11-19T14:01:58;14.10;99.90
25192;DHT22;13143;50.924;5.320;2023-11-19T14:04:24;14.10;99.90
25192;DHT22;13143;50.924;5.320;2023-11-19T14:06:50;14.10;99.90
25192;DHT22;13143;50.924;5.320;2023-11-19T14:09:16;14.10;99.90
25192;DHT22;13143;50.924;5.320;2023-11-19T14:11:43;14.10;99.90
25192;DHT22;13143;50.924;5.320;2023-11-19T14:14:09;14.10;99.90
25192;DHT22;13143;50.924;5.320;2023-11-19T14:16:35;14.10;99.90
25192;DHT22;13143;50.924;5.320;2023-11-19T14:19:00;14.10;99.90
25192;DHT22;13143;50.924;5.320;2023-11-19T14:21:26;14.10;99.90
25192;DHT22;13143;50.924;5.320;2023-11-19T14:23:52;14.10;99.90
25192;DHT22;13143;50.924;5.320;2023-11-19T14:26:18;14.00;99.90
25192;DHT22;13143;50.924;5.320;2023-11-19T14:28:44;14.00;99.90
25192;DHT22;13143;50.924;5.320;2023-11-19T14:31:10;14.00;99.90
25192;DHT22;13143;50.924;5.320;2023-11-19T14:33:35;14.00;99.90
25192;DHT22;13143;50.924;5.320;2023-11-19T14:36:03;14.00;99.90
25192;DHT22;13143;50.924;5.320;2023-11-19T14:38:29;14.00;99.90
25192;DHT22;13143;50.924;5.320;2023-11-19T14:40:55;14.00;99.90
25192;DHT22;13143;50.924;5.320;2023-11-19T14:43:21;14.00;99.90
25192;DHT22;13143;50.924;5.320;2023-11-19T14:45:46;14.00;99.90
25192;DHT22;13143;50.924;5.320;2023-11-19T14:48:12;14.00;99.90
25192;DHT22;13143;50.924;5.320;2023-11-19T14:50:38;14.00;99.90
25192;DHT22;13143;50.924;5.320;2023-11-19T14:53:03;14.00;99.90
25192;DHT22;13143;50.924;5.320;2023-11-19T14:55:29;14.00;99.90
25192;DHT22;13143;50.924;5.320;2023-11-19T14:57:54;14.00;99.90
25192;DHT22;13143;50.924;5.320;2023-11-19T15:00:22;14.00;99.90
25192;DHT22;13143;50.924;5.320;2023-11-19T15:02:47;14.00;99.90
25192;DHT22;13143;50.924;5.320;2023-11-19T15:05:13;14.00;99.90
25192;DHT22;13143;50.924;5.320;2023-11-19T15:07:39;14.00;99.90
25192;DHT22;13143;50.924;5.320;2023-11-19T15:10:08;13.90;99.90
25192;DHT22;13143;50.924;5.320;2023-11-19T15:12:35;13.90;99.90
25192;DHT22;13143;50.924;5.320;2023-11-19T15:15:08;13.90;99.90
25192;DHT22;13143;50.924;5.320;2023-11-19T15:17:34;14.00;99.90
25192;DHT22;13143;50.924;5.320;2023-11-19T15:20:04;13.90;99.90
25192;DHT22;13143;50.924;5.320;2023-11-19T15:22:30;13.90;99.90
25192;DHT22;13143;50.924;5.320;2023-11-19T15:24:56;13.90;99.90
25192;DHT22;13143;50.924;5.320;2023-11-19T15:27:22;13.90;99.90
25192;DHT22;13143;50.924;5.320;2023-11-19T15:29:48;13.90;99.90
25192;DHT22;13143;50.924;5.320;2023-11-19T15:32:14;13.90;99.90
25192;DHT22;13143;50.924;5.320;2023-11-19T15:34:39;13.90;99.90
25192;DHT22;13143;50.924;5.320;2023-11-19T15:37:09;14.00;99.90
25192;DHT22;13143;50.924;5.320;2023-11-19T15:39:38;13.90;99.90
25192;DHT22;13143;50.924;5.320;2023-11-19T15:42:04;13.90;99.90
25192;DHT22;13143;50.924;5.320;2023-11-19T15:44:30;13.90;99.90
25192;DHT22;13143;50.924;5.320;2023-11-19T15:46:55;13.90;99.90
25192;DHT22;13143;50.924;5.320;2023-11-19T15:49:21;13.90;99.90
25192;DHT22;13143;50.924;5.320;2023-11-19T15:51:47;13.90;99.90
25192;DHT22;13143;50.924;5.320;2023-11-19T15:54:12;13.90;99.90
25192;DHT22;13143;50.924;5.320;2023-11-19T15:56:38;13.90;99.90